sensor_id;sensor_type;location;lat;lon;timestamp;P1;durP1;ratioP1;P2;durP2;ratioP2
41631;SDS011;37452;51.938;4.624;2023-03-29T20:18:08;7.78;;;3.97;;
41631;SDS011;37452;51.938;4.624;2023-03-29T20:20:33;6.63;;;4.10;;
41631;SDS011;37452;51.938;4.624;2023-03-29T20:22:59;11.50;;;4.25;;
41631;SDS011;37452;51.938;4.624;2023-03-29T20:25:27;10.15;;;4.95;;
41631;SDS011;37452;51.938;4.624;2023-03-29T20:27:53;11.45;;;4.68;;
41631;SDS011;37452;51.938;4.624;2023-03-29T20:30:21;15.88;;;5.72;;
41631;SDS011;37452;51.938;4.624;2023-03-29T20:32:47;12.05;;;6.20;;
41631;SDS011;37452;51.938;4.624;2023-03-29T20:35:13;8.57;;;4.05;;
41631;SDS011;37452;51.938;4.624;2023-03-29T20:37:38;12.82;;;3.90;;
41631;SDS011;37452;51.938;4.624;2023-03-29T20:40:05;9.93;;;4.30;;
41631;SDS011;37452;51.938;4.624;2023-03-29T20:42:32;14.23;;;3.90;;
41631;SDS011;37452;51.938;4.624;2023-03-29T20:44:58;8.85;;;3.90;;
41631;SDS011;37452;51.938;4.624;2023-03-29T20:47:25;11.57;;;4.05;;
41631;SDS011;37452;51.938;4.624;2023-03-29T20:49:51;9.75;;;3.63;;
41631;SDS011;37452;51.938;4.624;2023-03-29T20:52:19;9.68;;;3.25;;
41631;SDS011;37452;51.938;4.624;2023-03-29T20:54:46;12.70;;;3.67;;
41631;SDS011;37452;51.938;4.624;2023-03-29T20:57:13;6.32;;;2.90;;
41631;SDS011;37452;51.938;4.624;2023-03-29T20:59:41;5.20;;;3.20;;
41631;SDS011;37452;51.938;4.624;2023-03-29T21:02:09;7.18;;;2.80;;
41631;SDS011;37452;51.938;4.624;2023-03-29T21:04:47;6.80;;;3.15;;
41631;SDS011;37452;51.938;4.624;2023-03-29T21:07:14;6.47;;;3.05;;
41631;SDS011;37452;51.938;4.624;2023-03-29T21:09:41;10.77;;;3.95;;
41631;SDS011;37452;51.938;4.624;2023-03-29T21:12:06;8.98;;;3.40;;
41631;SDS011;37452;51.938;4.624;2023-03-29T21:14:31;12.75;;;3.88;;
41631;SDS011;37452;51.938;4.624;2023-03-29T21:16:57;9.13;;;3.03;;
41631;SDS011;37452;51.938;4.624;2023-03-29T21:19:22;8.82;;;3.92;;
41631;SDS011;37452;51.938;4.624;2023-03-29T21:21:48;9.77;;;3.30;;
41631;SDS011;37452;51.938;4.624;2023-03-29T21:24:16;9.73;;;3.30;;
41631;SDS011;37452;51.938;4.624;2023-03-29T21:26:42;7.50;;;3.08;;
41631;SDS011;37452;51.938;4.624;2023-03-29T21:29:08;10.23;;;2.83;;
41631;SDS011;37452;51.938;4.624;2023-03-29T21:31:34;8.88;;;3.45;;
41631;SDS011;37452;51.938;4.624;2023-03-29T21:34:00;7.60;;;3.15;;
41631;SDS011;37452;51.938;4.624;2023-03-29T21:36:25;7.50;;;3.10;;
41631;SDS011;37452;51.938;4.624;2023-03-29T21:38:51;7.55;;;2.97;;
41631;SDS011;37452;51.938;4.624;2023-03-29T21:41:17;8.18;;;3.10;;
41631;SDS011;37452;51.938;4.624;2023-03-29T21:43:43;9.23;;;3.10;;
41631;SDS011;37452;51.938;4.624;2023-03-29T21:46:08;8.85;;;3.35;;
41631;SDS011;37452;51.938;4.624;2023-03-29T21:48:34;9.98;;;3.22;;
41631;SDS011;37452;51.938;4.624;2023-03-29T21:51:00;5.03;;;2.70;;
41631;SDS011;37452;51.938;4.624;2023-03-29T21:53:26;12.65;;;3.78;;
41631;SDS011;37452;51.938;4.624;2023-03-29T21:55:51;10.68;;;2.80;;
41631;SDS011;37452;51.938;4.624;2023-03-29T21:58:17;8.18;;;2.75;;
41631;SDS011;37452;51.938;4.624;2023-03-29T22:00:43;9.95;;;3.05;;
41631;SDS011;37452;51.938;4.624;2023-03-29T22:03:10;5.60;;;2.40;;
41631;SDS011;37452;51.938;4.624;2023-03-29T22:05:36;8.23;;;2.95;;
41631;SDS011;37452;51.938;4.624;2023-03-29T22:08:02;14.88;;;3.17;;
41631;SDS011;37452;51.938;4.624;2023-03-29T22:10:28;7.03;;;2.92;;
41631;SDS011;37452;51.938;4.624;2023-03-29T22:12:57;7.90;;;2.95;;
41631;SDS011;37452;51.938;4.624;2023-03-29T22:15:25;4.00;;;2.50;;
41631;SDS011;37452;51.938;4.624;2023-03-29T22:17:53;10.52;;;2.55;;
41631;SDS011;37452;51.938;4.624;2023-03-29T22:20:20;7.18;;;2.45;;
41631;SDS011;37452;51.938;4.624;2023-03-29T22:22:46;7.38;;;2.28;;
41631;SDS011;37452;51.938;4.624;2023-03-29T22:25:14;8.90;;;2.75;;
41631;SDS011;37452;51.938;4.624;2023-03-29T22:27:41;8.13;;;2.67;;
41631;SDS011;37452;51.938;4.624;2023-03-29T22:30:10;7.95;;;2.45;;
41631;SDS011;37452;51.938;4.624;2023-03-29T22:32:36;5.55;;;1.90;;
41631;SDS011;37452;51.938;4.624;2023-03-29T22:35:02;7.15;;;2.22;;
41631;SDS011;37452;51.938;4.624;2023-03-29T22:37:27;8.52;;;2.83;;
41631;SDS011;37452;51.938;4.624;2023-03-29T22:39:53;4.72;;;2.42;;
41631;SDS011;37452;51.938;4.624;2023-03-29T22:42:18;5.97;;;2.10;;
41631;SDS011;37452;51.938;4.624;2023-03-29T22:44:44;6.22;;;2.10;;
41631;SDS011;37452;51.938;4.624;2023-03-29T22:47:09;4.15;;;2.05;;
41631;SDS011;37452;51.938;4.624;2023-03-29T22:49:35;5.13;;;2.00;;
41631;SDS011;37452;51.938;4.624;2023-03-29T22:52:00;4.57;;;2.00;;
41631;SDS011;37452;51.938;4.624;2023-03-29T22:54:26;7.40;;;2.60;;
41631;SDS011;37452;51.938;4.624;2023-03-29T22:56:52;5.20;;;1.80;;
41631;SDS011;37452;51.938;4.624;2023-03-29T22:59:17;7.30;;;1.88;;
41631;SDS011;37452;51.938;4.624;2023-03-29T23:01:43;3.90;;;1.90;;
41631;SDS011;37452;51.938;4.624;2023-03-29T23:04:09;3.55;;;1.85;;
41631;SDS011;37452;51.938;4.624;2023-03-29T23:06:34;7.35;;;2.28;;
41631;SDS011;37452;51.938;4.624;2023-03-29T23:09:00;7.00;;;2.00;;
41631;SDS011;37452;51.938;4.624;2023-03-29T23:11:25;5.57;;;2.08;;
41631;SDS011;37452;51.938;4.624;2023-03-29T23:13:51;9.02;;;2.00;;
41631;SDS011;37452;51.938;4.624;2023-03-29T23:16:17;6.70;;;2.00;;
41631;SDS011;37452;51.938;4.624;2023-03-29T23:18:45;4.78;;;2.13;;
41631;SDS011;37452;51.938;4.624;2023-03-29T23:21:10;4.65;;;1.95;;
41631;SDS011;37452;51.938;4.624;2023-03-29T23:23:37;4.53;;;1.67;;
41631;SDS011;37452;51.938;4.624;2023-03-29T23:26:03;5.15;;;1.63;;
41631;SDS011;37452;51.938;4.624;2023-03-29T23:28:29;6.47;;;1.88;;
41631;SDS011;37452;51.938;4.624;2023-03-29T23:30:56;6.50;;;1.50;;
41631;SDS011;37452;51.938;4.624;2023-03-29T23:33:27;4.38;;;1.60;;
41631;SDS011;37452;51.938;4.624;2023-03-29T23:35:54;5.63;;;2.00;;
41631;SDS011;37452;51.938;4.624;2023-03-29T23:38:20;6.38;;;1.70;;
41631;SDS011;37452;51.938;4.624;2023-03-29T23:40:55;8.90;;;1.67;;
41631;SDS011;37452;51.938;4.624;2023-03-29T23:43:32;3.28;;;1.27;;
41631;SDS011;37452;51.938;4.624;2023-03-29T23:46:00;6.65;;;1.70;;
41631;SDS011;37452;51.938;4.624;2023-03-29T23:48:26;6.35;;;2.00;;
41631;SDS011;37452;51.938;4.624;2023-03-29T23:50:52;5.30;;;1.30;;
41631;SDS011;37452;51.938;4.624;2023-03-29T23:53:18;6.78;;;1.45;;
41631;SDS011;37452;51.938;4.624;2023-03-29T23:55:45;3.20;;;1.52;;
41631;SDS011;37452;51.938;4.624;2023-03-29T23:58:11;3.85;;;1.27;;
